createdAt,value
2023-03-13T00:00:29.362Z,9.00
2023-03-13T00:01:29.368Z,9.04
2023-03-13T00:02:29.448Z,9.08
2023-03-13T00:03:29.364Z,9.12
2023-03-13T00:04:29.365Z,9.15
2023-03-13T00:05:29.325Z,9.17
2023-03-13T00:06:29.319Z,9.19
2023-03-13T00:07:29.337Z,9.20
2023-03-13T00:08:29.255Z,9.24
2023-03-13T00:09:29.258Z,9.26
2023-03-13T00:10:29.228Z,9.26
2023-03-13T00:11:29.232Z,9.27
2023-03-13T00:12:29.258Z,9.27
2023-03-13T00:13:29.213Z,9.30
2023-03-13T00:14:29.192Z,9.32
2023-03-13T00:15:29.185Z,9.31
2023-03-13T00:16:29.269Z,9.35
2023-03-13T00:17:29.204Z,9.37
2023-03-13T00:18:29.122Z,9.37
2023-03-13T00:19:29.126Z,9.40
2023-03-13T00:20:29.131Z,9.38
2023-03-13T00:21:29.142Z,9.41
2023-03-13T00:22:29.091Z,9.41
2023-03-13T00:23:29.107Z,9.44
2023-03-13T00:24:29.072Z,9.48
2023-03-13T00:25:29.102Z,9.52
2023-03-13T00:26:29.030Z,9.50
2023-03-13T00:27:29.070Z,9.50
2023-03-13T00:28:29.000Z,9.50
2023-03-13T00:29:29.001Z,9.49
2023-03-13T00:30:29.032Z,9.49
2023-03-13T00:31:29.257Z,9.48
2023-03-13T00:32:29.054Z,9.49
2023-03-13T00:33:28.972Z,9.49
2023-03-13T00:34:28.922Z,9.50
2023-03-13T00:35:29.023Z,9.49
2023-03-13T00:36:28.905Z,9.49
2023-03-13T00:37:28.927Z,9.50
2023-03-13T00:38:28.870Z,9.49
2023-03-13T00:39:28.892Z,9.48
2023-03-13T00:40:28.886Z,9.48
2023-03-13T00:41:28.837Z,9.45
2023-03-13T00:42:28.849Z,9.45
2023-03-13T00:43:28.812Z,9.44
2023-03-13T00:44:28.824Z,9.44
2023-03-13T00:45:28.806Z,9.44
2023-03-13T00:46:28.926Z,9.41
2023-03-13T00:47:28.757Z,9.41
2023-03-13T00:48:28.787Z,9.40
2023-03-13T00:49:28.754Z,9.38
2023-03-13T00:50:28.755Z,9.38
2023-03-13T00:51:28.708Z,9.37
2023-03-13T00:52:28.742Z,9.34
2023-03-13T00:53:28.699Z,9.32
2023-03-13T00:54:28.732Z,9.34
2023-03-13T00:55:28.654Z,9.31
2023-03-13T00:56:28.685Z,9.30
2023-03-13T00:57:28.637Z,9.27
2023-03-13T00:58:28.625Z,9.26
2023-03-13T00:59:28.642Z,9.23
2023-03-13T01:00:28.646Z,9.22
2023-03-13T01:01:28.596Z,9.20
2023-03-13T01:02:28.745Z,9.20
2023-03-13T01:03:28.626Z,9.22
2023-03-13T01:04:28.582Z,9.20
2023-03-13T01:05:28.538Z,9.20
2023-03-13T01:06:28.561Z,9.20
2023-03-13T01:07:28.569Z,9.22
2023-03-13T01:08:28.527Z,9.19
2023-03-13T01:09:28.480Z,9.19
2023-03-13T01:10:28.506Z,9.19
2023-03-13T01:11:28.500Z,9.17
2023-03-13T01:12:28.506Z,9.17
2023-03-13T01:13:28.432Z,9.20
2023-03-13T01:14:28.466Z,9.20
2023-03-13T01:15:28.439Z,9.19
2023-03-13T01:16:28.406Z,9.22
2023-03-13T01:17:28.419Z,9.19
2023-03-13T01:18:28.380Z,9.20
2023-03-13T01:19:28.370Z,9.20
2023-03-13T01:20:28.386Z,9.22
2023-03-13T01:21:28.373Z,9.20
2023-03-13T01:22:28.361Z,9.22
2023-03-13T01:23:28.326Z,9.23
2023-03-13T01:24:28.327Z,9.24
2023-03-13T01:25:28.297Z,9.23
2023-03-13T01:26:28.325Z,9.26
2023-03-13T01:27:28.300Z,9.27
2023-03-13T01:28:28.249Z,9.30
2023-03-13T01:29:28.264Z,9.30
2023-03-13T01:30:28.238Z,9.30
2023-03-13T01:31:28.629Z,9.35
2023-03-13T01:32:28.304Z,9.37
2023-03-13T01:33:28.225Z,9.41
2023-03-13T01:34:28.181Z,9.48
2023-03-13T01:35:28.190Z,9.49
2023-03-13T01:36:28.160Z,9.56
2023-03-13T01:37:28.156Z,9.59
2023-03-13T01:38:28.194Z,9.63
2023-03-13T01:39:28.135Z,9.68
2023-03-13T01:40:28.105Z,9.71
2023-03-13T01:41:28.076Z,9.77
2023-03-13T01:42:28.068Z,9.78
2023-03-13T01:43:28.099Z,9.78
2023-03-13T01:44:28.062Z,9.81
2023-03-13T01:45:28.028Z,9.83
2023-03-13T01:46:28.407Z,9.85
2023-03-13T01:47:28.020Z,9.88
2023-03-13T01:48:28.045Z,9.89
2023-03-13T01:49:27.993Z,9.92
2023-03-13T01:50:27.992Z,9.92
2023-03-13T01:51:27.965Z,9.96
2023-03-13T01:52:27.953Z,9.95
2023-03-13T01:53:27.937Z,9.96
2023-03-13T01:54:27.948Z,9.95
2023-03-13T01:55:27.928Z,9.96
2023-03-13T01:56:27.906Z,9.96
2023-03-13T01:57:27.878Z,9.98
2023-03-13T01:58:27.947Z,9.96
2023-03-13T01:59:27.884Z,9.98
2023-03-13T02:00:27.875Z,10.02
2023-03-13T02:01:27.909Z,10.07
2023-03-13T02:02:27.867Z,10.10
2023-03-13T02:03:27.823Z,10.10
2023-03-13T02:04:27.794Z,10.13
2023-03-13T02:05:27.807Z,10.14
2023-03-13T02:06:27.765Z,10.18
2023-03-13T02:07:27.767Z,10.20
2023-03-13T02:08:27.830Z,10.20
2023-03-13T02:09:27.746Z,10.20
2023-03-13T02:10:27.712Z,10.24
2023-03-13T02:11:27.712Z,10.24
2023-03-13T02:12:27.704Z,10.25
2023-03-13T02:13:27.706Z,10.28
2023-03-13T02:14:27.697Z,10.29
2023-03-13T02:15:27.653Z,10.31
2023-03-13T02:16:27.863Z,10.34
2023-03-13T02:17:27.619Z,10.32
2023-03-13T02:18:27.658Z,10.32
2023-03-13T02:19:27.582Z,10.31
2023-03-13T02:20:27.615Z,10.29
2023-03-13T02:21:27.576Z,10.28
2023-03-13T02:22:27.586Z,10.29
2023-03-13T02:23:27.565Z,10.29
2023-03-13T02:24:27.575Z,10.29
2023-03-13T02:25:27.513Z,10.28
2023-03-13T02:26:27.522Z,10.28
2023-03-13T02:27:27.511Z,10.28
2023-03-13T02:28:27.564Z,10.26
2023-03-13T02:29:27.448Z,10.31
2023-03-13T02:30:27.480Z,10.31
2023-03-13T02:31:27.572Z,10.29
2023-03-13T02:32:27.512Z,10.31
2023-03-13T02:33:27.441Z,10.26
2023-03-13T02:34:27.412Z,10.26
2023-03-13T02:35:27.492Z,10.25
2023-03-13T02:36:27.378Z,10.25
2023-03-13T02:37:27.373Z,10.22
2023-03-13T02:38:27.425Z,10.18
2023-03-13T02:39:27.347Z,10.17
2023-03-13T02:40:27.352Z,10.16
2023-03-13T02:41:28.245Z,10.13
2023-03-13T02:42:27.342Z,10.11
2023-03-13T02:43:27.356Z,10.09
2023-03-13T02:44:27.316Z,10.07
2023-03-13T02:45:27.280Z,10.06
2023-03-13T02:46:27.284Z,10.06
2023-03-13T02:47:27.248Z,10.04
2023-03-13T02:48:27.336Z,10.04
2023-03-13T02:49:27.234Z,10.02
2023-03-13T02:50:27.224Z,10.02
2023-03-13T02:51:27.228Z,10.01
2023-03-13T02:52:27.219Z,9.99
2023-03-13T02:53:27.164Z,9.98
2023-03-13T02:54:27.198Z,9.98
2023-03-13T02:55:27.154Z,9.96
2023-03-13T02:56:27.281Z,9.96
2023-03-13T02:57:27.150Z,9.95
2023-03-13T02:58:27.106Z,9.95
2023-03-13T02:59:27.073Z,9.93
2023-03-13T03:00:27.267Z,9.93
2023-03-13T03:01:27.086Z,9.91
2023-03-13T03:02:27.111Z,9.91
2023-03-13T03:03:27.037Z,9.91
2023-03-13T03:04:27.029Z,9.89
2023-03-13T03:05:27.030Z,9.91
2023-03-13T03:06:27.064Z,9.89
2023-03-13T03:07:27.011Z,9.88
2023-03-13T03:08:27.710Z,9.85
2023-03-13T03:09:26.952Z,9.83
2023-03-13T03:10:26.948Z,9.83
2023-03-13T03:11:26.953Z,9.85
2023-03-13T03:12:26.946Z,9.85
2023-03-13T03:13:26.993Z,9.88
2023-03-13T03:14:26.936Z,9.88
2023-03-13T03:15:26.916Z,9.88
2023-03-13T03:16:26.951Z,9.85
2023-03-13T03:17:26.869Z,9.85
2023-03-13T03:18:26.868Z,9.86
2023-03-13T03:19:26.884Z,9.85
2023-03-13T03:20:26.823Z,9.83
2023-03-13T03:21:26.830Z,9.81
2023-03-13T03:22:26.812Z,9.81
2023-03-13T03:23:26.788Z,9.80
2023-03-13T03:24:26.811Z,9.81
2023-03-13T03:25:26.759Z,9.80
2023-03-13T03:26:26.741Z,9.80
2023-03-13T03:27:26.752Z,9.83
2023-03-13T03:28:26.711Z,9.81
2023-03-13T03:29:26.730Z,9.85
2023-03-13T03:30:26.706Z,9.85
2023-03-13T03:31:26.786Z,9.86
2023-03-13T03:32:35.678Z,9.86
2023-03-13T03:33:26.635Z,9.88
2023-03-13T03:34:26.648Z,9.89
2023-03-13T03:35:26.638Z,9.88
2023-03-13T03:36:26.632Z,9.88
2023-03-13T03:37:26.584Z,9.89
2023-03-13T03:38:26.607Z,9.89
2023-03-13T03:39:26.581Z,9.92
2023-03-13T03:40:26.643Z,9.93
2023-03-13T03:41:26.556Z,9.92
2023-03-13T03:42:26.522Z,9.93
2023-03-13T03:43:26.503Z,9.95
2023-03-13T03:44:26.526Z,9.95
2023-03-13T03:45:26.505Z,9.93
2023-03-13T03:46:26.516Z,9.93
2023-03-13T03:47:26.494Z,9.93
2023-03-13T03:48:26.454Z,9.93
2023-03-13T03:49:26.419Z,9.96
2023-03-13T03:50:26.510Z,9.96
2023-03-13T03:51:26.408Z,10.01
2023-03-13T03:52:26.402Z,10.04
2023-03-13T03:53:26.372Z,10.09
2023-03-13T03:54:26.417Z,10.11
2023-03-13T03:55:26.388Z,10.14
2023-03-13T03:56:26.388Z,10.18
2023-03-13T03:57:26.350Z,10.22
2023-03-13T03:58:26.360Z,10.25
2023-03-13T03:59:26.461Z,10.26
2023-03-13T04:00:26.359Z,10.28
2023-03-13T04:01:26.303Z,10.28
2023-03-13T04:02:26.332Z,10.31
2023-03-13T04:03:26.305Z,10.32
2023-03-13T04:04:26.255Z,10.36
2023-03-13T04:05:27.019Z,10.39
2023-03-13T04:06:26.252Z,10.44
2023-03-13T04:07:26.229Z,10.47
2023-03-13T04:08:26.224Z,10.49
2023-03-13T04:09:26.199Z,10.51
2023-03-13T04:10:26.184Z,10.52
2023-03-13T04:11:26.214Z,10.52
2023-03-13T04:12:26.176Z,10.51
2023-03-13T04:13:26.116Z,10.54
2023-03-13T04:14:26.116Z,10.58
2023-03-13T04:15:26.175Z,10.60
2023-03-13T04:16:26.250Z,10.65
2023-03-13T04:17:26.099Z,10.63
2023-03-13T04:18:26.069Z,10.66
2023-03-13T04:19:26.057Z,10.68
2023-03-13T04:20:26.138Z,10.65
2023-03-13T04:21:26.042Z,10.68
2023-03-13T04:22:26.026Z,10.68
2023-03-13T04:23:26.036Z,10.69
2023-03-13T04:24:26.013Z,10.70
2023-03-13T04:25:26.001Z,10.72
2023-03-13T04:26:25.983Z,10.75
2023-03-13T04:27:25.970Z,10.75
2023-03-13T04:28:25.934Z,10.72
2023-03-13T04:29:25.953Z,10.72
2023-03-13T04:30:25.942Z,10.72
2023-03-13T04:31:25.926Z,10.73
2023-03-13T04:32:25.958Z,10.75
2023-03-13T04:33:25.889Z,10.76
2023-03-13T04:34:25.896Z,10.78
2023-03-13T04:35:25.949Z,10.80
2023-03-13T04:36:25.950Z,10.81
2023-03-13T04:37:25.848Z,10.80
2023-03-13T04:38:25.842Z,10.76
2023-03-13T04:39:25.802Z,10.76
2023-03-13T04:40:25.858Z,10.75
2023-03-13T04:41:25.780Z,10.75
2023-03-13T04:42:25.776Z,10.76
2023-03-13T04:43:25.743Z,10.73
2023-03-13T04:44:25.732Z,10.75
2023-03-13T04:45:25.738Z,10.75
2023-03-13T04:46:25.807Z,10.73
2023-03-13T04:47:25.712Z,10.72
2023-03-13T04:48:25.706Z,10.72
2023-03-13T04:49:25.680Z,10.72
2023-03-13T04:50:25.669Z,10.70
2023-03-13T04:51:25.633Z,10.72
2023-03-13T04:52:25.633Z,10.72
2023-03-13T04:53:25.639Z,10.73
2023-03-13T04:54:25.601Z,10.72
2023-03-13T04:55:25.662Z,10.70
2023-03-13T04:56:41.686Z,10.70
2023-03-13T04:57:26.582Z,10.69
2023-03-13T04:58:25.540Z,10.69
2023-03-13T04:59:25.559Z,10.69
2023-03-13T05:00:25.525Z,10.66
2023-03-13T05:01:25.624Z,10.65
2023-03-13T05:02:25.515Z,10.65
2023-03-13T05:03:25.506Z,10.65
2023-03-13T05:04:25.497Z,10.65
2023-03-13T05:05:25.675Z,10.66
2023-03-13T05:06:25.475Z,10.62
2023-03-13T05:07:25.453Z,10.63
2023-03-13T05:08:25.429Z,10.62
2023-03-13T05:09:25.425Z,10.60
2023-03-13T05:10:25.410Z,10.62
2023-03-13T05:11:25.402Z,10.62
2023-03-13T05:12:25.398Z,10.58
2023-03-13T05:13:25.357Z,10.54
2023-03-13T05:14:25.348Z,10.54
2023-03-13T05:15:25.343Z,10.54
2023-03-13T05:16:25.389Z,10.51
2023-03-13T05:17:25.306Z,10.51
2023-03-13T05:18:25.292Z,10.51
2023-03-13T05:19:25.276Z,10.49
2023-03-13T05:20:25.246Z,10.51
2023-03-13T05:21:25.296Z,10.51
2023-03-13T05:22:25.250Z,10.54
2023-03-13T05:23:25.256Z,10.55
2023-03-13T05:24:25.211Z,10.55
2023-03-13T05:25:25.226Z,10.54
2023-03-13T05:26:25.239Z,10.54
2023-03-13T05:27:25.175Z,10.54
2023-03-13T05:28:25.182Z,10.52
2023-03-13T05:29:25.184Z,10.52
2023-03-13T05:30:25.128Z,10.52
2023-03-13T05:31:25.214Z,10.51
2023-03-13T05:32:25.186Z,10.52
2023-03-13T05:33:25.120Z,10.51
2023-03-13T05:34:25.064Z,10.51
2023-03-13T05:35:25.169Z,10.52
2023-03-13T05:36:25.084Z,10.54
2023-03-13T05:37:25.063Z,10.51
2023-03-13T05:38:25.033Z,10.51
2023-03-13T05:39:25.025Z,10.57
2023-03-13T05:40:25.000Z,10.55
2023-03-13T05:41:24.986Z,10.55
2023-03-13T05:42:25.011Z,10.54
2023-03-13T05:43:24.976Z,10.55
2023-03-13T05:44:24.955Z,10.58
2023-03-13T05:45:24.949Z,10.57
2023-03-13T05:46:24.945Z,10.58
2023-03-13T05:47:24.951Z,10.57
2023-03-13T05:48:24.921Z,10.57
2023-03-13T05:49:24.919Z,10.60
2023-03-13T05:50:24.922Z,10.60
2023-03-13T05:51:24.916Z,10.60
2023-03-13T05:52:24.908Z,10.62
2023-03-13T05:53:24.839Z,10.62
2023-03-13T05:54:24.813Z,10.62
2023-03-13T05:55:24.808Z,10.65
2023-03-13T05:56:24.779Z,10.65
2023-03-13T05:57:24.806Z,10.66
2023-03-13T05:58:24.756Z,10.69
2023-03-13T05:59:24.757Z,10.70
2023-03-13T06:00:24.763Z,10.70
2023-03-13T06:01:24.734Z,10.72
2023-03-13T06:02:24.769Z,10.72
2023-03-13T06:03:24.801Z,10.72
2023-03-13T06:04:24.765Z,10.70
2023-03-13T06:05:24.721Z,10.69
2023-03-13T06:06:24.691Z,10.69
2023-03-13T06:07:24.827Z,10.72
2023-03-13T06:08:24.659Z,10.70
2023-03-13T06:09:24.666Z,10.73
2023-03-13T06:10:24.636Z,10.73
2023-03-13T06:11:24.593Z,10.72
2023-03-13T06:12:24.688Z,10.73
2023-03-13T06:13:24.598Z,10.78
2023-03-13T06:14:24.568Z,10.83
2023-03-13T06:15:24.581Z,10.84
2023-03-13T06:16:24.603Z,10.87
2023-03-13T06:17:24.538Z,10.86
2023-03-13T06:18:24.489Z,10.86
2023-03-13T06:19:24.540Z,10.88
2023-03-13T06:20:24.479Z,10.86
2023-03-13T06:21:24.494Z,10.86
2023-03-13T06:22:24.492Z,10.86
2023-03-13T06:23:24.475Z,10.88
2023-03-13T06:24:24.426Z,10.87
2023-03-13T06:25:24.442Z,10.87
2023-03-13T06:26:24.392Z,10.90
2023-03-13T06:27:24.467Z,10.88
2023-03-13T06:28:24.392Z,10.88
2023-03-13T06:29:24.366Z,10.88
2023-03-13T06:30:24.362Z,10.91
2023-03-13T06:31:24.514Z,10.93
2023-03-13T06:32:24.483Z,10.94
2023-03-13T06:33:24.441Z,10.98
2023-03-13T06:34:24.284Z,10.99
2023-03-13T06:35:24.317Z,10.99
2023-03-13T06:36:24.364Z,11.01
2023-03-13T06:37:24.278Z,11.01
2023-03-13T06:38:24.250Z,11.02
2023-03-13T06:39:24.264Z,11.03
2023-03-13T06:40:24.296Z,11.02
2023-03-13T06:41:24.246Z,11.02
2023-03-13T06:42:24.217Z,10.99
2023-03-13T06:43:24.219Z,11.01
2023-03-13T06:44:24.166Z,11.01
2023-03-13T06:45:24.201Z,10.99
2023-03-13T06:46:24.338Z,10.99
2023-03-13T06:47:24.215Z,10.98
2023-03-13T06:48:24.144Z,10.98
2023-03-13T06:49:24.143Z,10.98
2023-03-13T06:50:24.122Z,10.98
2023-03-13T06:51:24.113Z,10.98
2023-03-13T06:52:37.457Z,11.01
2023-03-13T06:53:25.073Z,11.02
2023-03-13T06:54:24.052Z,11.03
2023-03-13T06:55:24.045Z,11.05
2023-03-13T06:56:24.058Z,11.03
2023-03-13T06:57:24.072Z,11.06
2023-03-13T06:58:32.202Z,11.08
2023-03-13T06:59:24.989Z,11.09
2023-03-13T07:00:23.990Z,11.13
2023-03-13T07:01:24.058Z,11.16
2023-03-13T07:02:23.982Z,11.16
2023-03-13T07:03:23.926Z,11.20
2023-03-13T07:04:23.928Z,11.21
2023-03-13T07:05:23.954Z,11.27
2023-03-13T07:06:23.886Z,11.31
2023-03-13T07:07:31.691Z,11.38
2023-03-13T07:08:24.847Z,11.44
2023-03-13T07:09:23.875Z,11.51
2023-03-13T07:10:25.148Z,11.56
2023-03-13T07:11:23.839Z,11.57
2023-03-13T07:12:23.844Z,11.60
2023-03-13T07:13:23.810Z,11.63
2023-03-13T07:14:23.904Z,11.69
2023-03-13T07:15:23.815Z,11.77
2023-03-13T07:16:23.966Z,11.81
2023-03-13T07:17:23.874Z,11.85
2023-03-13T07:18:23.725Z,11.90
2023-03-13T07:19:23.737Z,12.01
2023-03-13T07:20:23.835Z,12.12
2023-03-13T07:21:23.737Z,12.18
2023-03-13T07:22:24.127Z,12.21
2023-03-13T07:23:23.839Z,12.22
2023-03-13T07:24:24.654Z,12.25
2023-03-13T07:25:23.676Z,12.30
2023-03-13T07:26:23.892Z,12.36
2023-03-13T07:27:23.664Z,12.40
2023-03-13T07:28:23.893Z,12.40
2023-03-13T07:29:23.698Z,12.43
2023-03-13T07:30:23.775Z,12.49
2023-03-13T07:31:23.649Z,12.54
2023-03-13T07:32:23.610Z,12.61
2023-03-13T07:33:24.495Z,12.69
2023-03-13T07:34:24.666Z,12.69
2023-03-13T07:35:23.557Z,12.67
2023-03-13T07:36:23.595Z,12.63
2023-03-13T07:37:23.492Z,12.61
2023-03-13T07:38:24.031Z,12.58
2023-03-13T07:39:23.512Z,12.61
2023-03-13T07:40:23.493Z,12.63
2023-03-13T07:41:23.475Z,12.66
2023-03-13T07:42:23.452Z,12.73
2023-03-13T07:43:23.771Z,12.76
2023-03-13T07:44:23.622Z,12.77
2023-03-13T07:45:23.451Z,12.80
2023-03-13T07:46:23.789Z,12.79
2023-03-13T07:47:23.578Z,12.77
2023-03-13T07:48:23.384Z,12.76
2023-03-13T07:49:23.468Z,12.74
2023-03-13T07:50:23.414Z,12.74
2023-03-13T07:51:33.549Z,12.74
2023-03-13T07:52:24.319Z,12.73
2023-03-13T07:53:23.329Z,12.69
2023-03-13T07:54:23.262Z,12.66
2023-03-13T07:55:23.315Z,12.66
2023-03-13T07:56:24.094Z,12.67
2023-03-13T07:57:23.259Z,12.70
2023-03-13T07:58:23.221Z,12.71
2023-03-13T07:59:23.244Z,12.74
2023-03-13T08:00:23.455Z,12.79
2023-03-13T08:01:25.611Z,12.84
2023-03-13T08:02:23.243Z,12.88
2023-03-13T08:03:23.319Z,12.88
2023-03-13T08:04:23.189Z,12.89
2023-03-13T08:05:23.151Z,12.88
2023-03-13T08:06:23.141Z,12.89
2023-03-13T08:07:23.121Z,12.87
2023-03-13T08:08:23.102Z,12.85
2023-03-13T08:09:23.117Z,12.88
2023-03-13T08:10:23.069Z,12.91
2023-03-13T08:11:23.051Z,12.91
2023-03-13T08:12:23.075Z,12.89
2023-03-13T08:13:23.064Z,12.92
2023-03-13T08:14:23.096Z,12.91
2023-03-13T08:15:23.059Z,12.91
2023-03-13T08:16:23.065Z,12.92
2023-03-13T08:17:22.975Z,12.91
2023-03-13T08:18:22.994Z,12.94
2023-03-13T08:19:22.980Z,12.95
2023-03-13T08:20:22.965Z,12.94
2023-03-13T08:21:22.932Z,12.96
2023-03-13T08:22:22.912Z,12.96
2023-03-13T08:23:22.901Z,12.99
2023-03-13T08:24:22.909Z,12.94
2023-03-13T08:25:22.888Z,12.96
2023-03-13T08:26:22.868Z,12.96
2023-03-13T08:27:22.886Z,12.95
2023-03-13T08:28:22.840Z,12.98
2023-03-13T08:29:22.846Z,13.06
2023-03-13T08:30:22.846Z,13.09
2023-03-13T08:31:22.885Z,13.09
2023-03-13T08:32:22.807Z,13.09
2023-03-13T08:33:22.781Z,13.12
2023-03-13T08:34:22.760Z,13.10
2023-03-13T08:35:22.804Z,13.09
2023-03-13T08:36:22.722Z,13.07
2023-03-13T08:37:22.738Z,13.09
2023-03-13T08:38:22.698Z,13.13
2023-03-13T08:39:22.722Z,13.19
2023-03-13T08:40:22.731Z,13.22
2023-03-13T08:41:22.689Z,13.22
2023-03-13T08:42:22.670Z,13.22
2023-03-13T08:43:22.640Z,13.28
2023-03-13T08:44:22.619Z,13.29
2023-03-13T08:45:22.654Z,13.36
2023-03-13T08:46:22.640Z,13.39
2023-03-13T08:47:22.618Z,13.39
2023-03-13T08:48:22.568Z,13.36
2023-03-13T08:49:22.572Z,13.32
2023-03-13T08:50:22.571Z,13.29
2023-03-13T08:51:22.535Z,13.25
2023-03-13T08:52:22.519Z,13.27
2023-03-13T08:53:22.549Z,13.27
2023-03-13T08:54:22.490Z,13.29
2023-03-13T08:55:22.510Z,13.32
2023-03-13T08:56:22.483Z,13.35
2023-03-13T08:57:22.459Z,13.31
2023-03-13T08:58:22.433Z,13.32
2023-03-13T08:59:22.490Z,13.36
2023-03-13T09:00:22.434Z,13.41
2023-03-13T09:01:22.409Z,13.43
2023-03-13T09:02:22.451Z,13.43
2023-03-13T09:03:22.438Z,13.44
2023-03-13T09:04:22.365Z,13.47
2023-03-13T09:05:22.376Z,13.51
2023-03-13T09:06:22.334Z,13.54
2023-03-13T09:07:22.333Z,13.54
2023-03-13T09:08:22.304Z,13.53
2023-03-13T09:09:24.255Z,13.51
2023-03-13T09:10:22.340Z,13.50
2023-03-13T09:11:22.296Z,13.50
2023-03-13T09:12:30.746Z,13.53
2023-03-13T09:13:23.254Z,13.51
2023-03-13T09:14:22.274Z,13.48
2023-03-13T09:15:22.255Z,13.44
2023-03-13T09:16:22.374Z,13.36
2023-03-13T09:17:22.194Z,13.32
2023-03-13T09:18:22.285Z,13.35
2023-03-13T09:19:22.189Z,13.36
2023-03-13T09:20:22.248Z,13.36
2023-03-13T09:21:22.147Z,13.38
2023-03-13T09:22:22.168Z,13.39
2023-03-13T09:23:22.144Z,13.38
2023-03-13T09:24:22.127Z,13.41
2023-03-13T09:25:22.126Z,13.46
2023-03-13T09:26:23.292Z,13.50
2023-03-13T09:27:22.079Z,13.53
2023-03-13T09:28:22.061Z,13.53
2023-03-13T09:29:22.030Z,13.53
2023-03-13T09:30:22.034Z,13.55
2023-03-13T09:31:22.069Z,13.57
2023-03-13T09:32:22.074Z,13.59
2023-03-13T09:34:21.090Z,13.71
2023-03-13T09:35:21.076Z,13.75
2023-03-13T09:36:22.603Z,13.81
2023-03-13T09:37:23.766Z,13.84
2023-03-13T09:38:21.004Z,13.90
2023-03-13T09:39:21.030Z,13.91
2023-03-13T09:40:21.079Z,13.93
2023-03-13T09:41:20.984Z,13.94
2023-03-13T09:42:20.989Z,13.96
2023-03-13T09:43:21.001Z,13.98
2023-03-13T09:44:20.951Z,14.01
2023-03-13T09:45:20.961Z,13.98
2023-03-13T09:46:20.946Z,13.99
2023-03-13T09:47:20.937Z,14.01
2023-03-13T09:48:20.872Z,14.06
2023-03-13T09:49:20.955Z,14.08
2023-03-13T09:50:20.887Z,14.11
2023-03-13T09:51:20.879Z,14.16
2023-03-13T09:52:20.858Z,14.17
2023-03-13T09:53:20.849Z,14.21
2023-03-13T09:54:20.842Z,14.26
2023-03-13T09:55:20.843Z,14.23
2023-03-13T09:56:20.796Z,14.26
2023-03-13T09:57:20.783Z,14.24
2023-03-13T09:58:20.742Z,14.26
2023-03-13T09:59:20.741Z,14.24
2023-03-13T10:00:20.762Z,14.27
2023-03-13T10:01:20.749Z,14.29
2023-03-13T10:02:20.700Z,14.30
2023-03-13T10:03:20.719Z,14.34
2023-03-13T10:04:20.694Z,14.34
2023-03-13T10:05:20.756Z,14.35
2023-03-13T10:06:20.635Z,14.39
2023-03-13T10:07:20.637Z,14.42
2023-03-13T10:08:20.632Z,14.45
2023-03-13T10:09:20.663Z,14.44
2023-03-13T10:10:20.619Z,14.44
2023-03-13T10:11:20.676Z,14.46
2023-03-13T10:12:20.581Z,14.48
2023-03-13T10:13:20.552Z,14.48
2023-03-13T10:14:21.517Z,14.48
2023-03-13T10:15:20.617Z,14.48
2023-03-13T10:16:20.528Z,14.49
2023-03-13T10:17:20.548Z,14.52
2023-03-13T10:18:20.551Z,14.49
2023-03-13T10:19:20.532Z,14.54
2023-03-13T10:20:20.536Z,14.57
2023-03-13T10:21:20.538Z,14.56
2023-03-13T10:22:20.454Z,14.60
2023-03-13T10:23:20.416Z,14.69
2023-03-13T10:24:20.403Z,14.72
2023-03-13T10:25:20.436Z,14.74
2023-03-13T10:26:20.496Z,14.82
2023-03-13T10:27:20.392Z,14.87
2023-03-13T10:28:20.341Z,14.91
2023-03-13T10:29:20.361Z,14.97
2023-03-13T10:30:21.407Z,15.03
2023-03-13T10:31:20.510Z,15.04
2023-03-13T10:32:20.366Z,15.12
2023-03-13T10:33:20.331Z,15.13
2023-03-13T10:34:20.303Z,15.15
2023-03-13T10:35:20.334Z,15.18
2023-03-13T10:36:20.289Z,15.18
2023-03-13T10:37:20.289Z,15.23
2023-03-13T10:38:20.275Z,15.25
2023-03-13T10:39:20.239Z,15.27
2023-03-13T10:40:20.232Z,15.30
2023-03-13T10:41:20.224Z,15.25
2023-03-13T10:42:20.172Z,15.22
2023-03-13T10:43:22.323Z,15.19
2023-03-13T10:44:20.163Z,15.22
2023-03-13T10:45:20.154Z,15.22
2023-03-13T10:46:20.192Z,15.23
2023-03-13T10:47:20.139Z,15.30
2023-03-13T10:48:20.108Z,15.31
2023-03-13T10:49:20.119Z,15.34
2023-03-13T10:50:20.078Z,15.35
2023-03-13T10:51:20.097Z,15.37
2023-03-13T10:52:20.096Z,15.38
2023-03-13T10:53:20.037Z,15.44
2023-03-13T10:54:20.039Z,15.46
2023-03-13T10:55:20.025Z,15.48
2023-03-13T10:56:19.980Z,15.51
2023-03-13T10:57:20.043Z,15.52
2023-03-13T10:58:20.033Z,15.52
2023-03-13T10:59:19.985Z,15.58
2023-03-13T11:00:19.948Z,15.62
2023-03-13T11:01:19.919Z,15.66
2023-03-13T11:02:19.975Z,15.74
2023-03-13T11:03:20.004Z,15.86
2023-03-13T11:04:19.948Z,15.93
2023-03-13T11:05:19.908Z,15.96
2023-03-13T11:06:19.908Z,16.03
2023-03-13T11:07:19.891Z,15.96
2023-03-13T11:08:19.969Z,15.92
2023-03-13T11:09:19.846Z,15.92
2023-03-13T11:10:19.868Z,15.88
2023-03-13T11:11:19.841Z,15.88
2023-03-13T11:12:19.773Z,15.93
2023-03-13T11:13:34.087Z,15.92
2023-03-13T11:14:20.766Z,15.92
2023-03-13T11:15:19.777Z,15.93
2023-03-13T11:16:19.841Z,15.93
2023-03-13T11:17:19.751Z,15.91
2023-03-13T11:18:19.730Z,15.86
2023-03-13T11:19:19.747Z,15.89
2023-03-13T11:20:19.686Z,15.99
2023-03-13T11:21:19.733Z,16.06
2023-03-13T11:22:19.738Z,16.11
2023-03-13T11:23:19.637Z,16.14
2023-03-13T11:24:19.645Z,16.14
2023-03-13T11:25:19.608Z,16.10
2023-03-13T11:26:19.636Z,16.03
2023-03-13T11:27:19.634Z,15.99
2023-03-13T11:28:19.639Z,15.96
2023-03-13T11:29:19.771Z,15.95
2023-03-13T11:30:19.556Z,15.92
2023-03-13T11:31:19.654Z,15.93
2023-03-13T11:32:19.617Z,15.92
2023-03-13T11:33:19.506Z,15.93
2023-03-13T11:34:19.485Z,15.98
2023-03-13T11:35:19.504Z,16.01
2023-03-13T11:36:19.512Z,15.99
2023-03-13T11:37:19.534Z,15.99
2023-03-13T11:38:19.560Z,15.98
2023-03-13T11:39:19.457Z,15.93
2023-03-13T11:40:19.453Z,15.92
2023-03-13T11:41:19.457Z,15.98
2023-03-13T11:42:19.422Z,16.04
2023-03-13T11:43:25.408Z,16.10
2023-03-13T11:44:20.371Z,16.25
2023-03-13T11:45:19.604Z,16.33
2023-03-13T11:46:19.538Z,16.30
2023-03-13T11:47:19.360Z,16.29
2023-03-13T11:48:19.322Z,16.29
2023-03-13T11:49:19.391Z,16.26
2023-03-13T11:50:19.370Z,16.17
2023-03-13T11:51:20.797Z,16.17
2023-03-13T11:52:19.293Z,16.18
2023-03-13T11:53:19.334Z,16.23
2023-03-13T11:54:19.227Z,16.23
2023-03-13T11:55:19.258Z,16.26
2023-03-13T11:56:19.191Z,16.33
2023-03-13T11:57:19.228Z,16.40
2023-03-13T11:58:19.167Z,16.45
2023-03-13T11:59:19.173Z,16.48
2023-03-13T12:00:19.176Z,16.47
2023-03-13T12:01:19.297Z,16.45
2023-03-13T12:02:19.201Z,16.47
2023-03-13T12:03:19.162Z,16.42
2023-03-13T12:04:19.149Z,16.36
2023-03-13T12:05:19.200Z,16.29
2023-03-13T12:06:27.900Z,16.25
2023-03-13T12:07:20.093Z,16.18
2023-03-13T12:08:19.031Z,16.23
2023-03-13T12:09:19.032Z,16.26
2023-03-13T12:10:19.003Z,16.26
2023-03-13T12:11:19.032Z,16.23
2023-03-13T12:12:19.000Z,16.22
2023-03-13T12:13:19.029Z,16.16
2023-03-13T12:14:18.952Z,16.11
2023-03-13T12:15:19.449Z,16.08
2023-03-13T12:16:19.057Z,16.06
2023-03-13T12:17:19.056Z,16.03
2023-03-13T12:18:18.932Z,15.99
2023-03-13T12:19:18.960Z,15.98
2023-03-13T12:20:18.916Z,15.96
2023-03-13T12:21:18.893Z,15.92
2023-03-13T12:22:18.897Z,15.89
2023-03-13T12:23:18.920Z,15.91
2023-03-13T12:24:18.988Z,15.95
2023-03-13T12:25:18.946Z,15.98
2023-03-13T12:26:18.985Z,16.03
2023-03-13T12:27:18.863Z,16.04
2023-03-13T12:28:18.969Z,16.03
2023-03-13T12:29:18.809Z,16.10
2023-03-13T12:30:18.774Z,16.14
2023-03-13T12:31:18.826Z,16.16
2023-03-13T12:32:18.797Z,16.18
2023-03-13T12:33:18.786Z,16.23
2023-03-13T12:34:18.766Z,16.34
2023-03-13T12:35:18.700Z,16.40
2023-03-13T12:36:18.777Z,16.37
2023-03-13T12:37:18.675Z,16.32
2023-03-13T12:38:18.692Z,16.29
2023-03-13T12:39:18.710Z,16.29
2023-03-13T12:40:18.692Z,16.29
2023-03-13T12:41:18.623Z,16.33
2023-03-13T12:42:18.619Z,16.36
2023-03-13T12:43:18.674Z,16.40
2023-03-13T12:44:18.582Z,16.40
2023-03-13T12:45:18.748Z,16.37
2023-03-13T12:46:18.716Z,16.44
2023-03-13T12:47:18.621Z,16.45
2023-03-13T12:48:18.676Z,16.48
2023-03-13T12:49:18.586Z,16.48
2023-03-13T12:50:18.492Z,16.48
2023-03-13T12:51:18.506Z,16.48
2023-03-13T12:52:18.455Z,16.47
2023-03-13T12:53:20.861Z,16.44
2023-03-13T12:54:18.549Z,16.42
2023-03-13T12:55:18.464Z,16.37
2023-03-13T12:56:18.403Z,16.36
2023-03-13T12:57:18.455Z,16.37
2023-03-13T12:58:18.419Z,16.37
2023-03-13T12:59:18.383Z,16.32